sensor_id;sensor_type;location;lat;lon;timestamp;pressure;altitude;pressure_sealevel;temperature;humidity
71805;BME280;59654;52.216;5.616;2022-11-15T00:00:25;100670.59;;;5.33;97.32
71805;BME280;59654;52.216;5.616;2022-11-15T00:01:16;100661.72;;;5.37;96.98
71805;BME280;59654;52.216;5.616;2022-11-15T00:02:07;100662.59;;;5.38;97.10
71805;BME280;59654;52.216;5.616;2022-11-15T00:02:56;100667.00;;;5.37;97.42
71805;BME280;59654;52.216;5.616;2022-11-15T00:03:46;100657.25;;;5.41;97.49
71805;BME280;59654;52.216;5.616;2022-11-15T00:04:35;100667.78;;;5.43;97.58
71805;BME280;59654;52.216;5.616;2022-11-15T00:05:24;100652.72;;;5.46;97.53
71805;BME280;59654;52.216;5.616;2022-11-15T00:06:14;100659.78;;;5.46;97.97
71805;BME280;59654;52.216;5.616;2022-11-15T00:07:03;100650.84;;;5.51;97.47
71805;BME280;59654;52.216;5.616;2022-11-15T00:07:52;100648.25;;;5.48;96.94
71805;BME280;59654;52.216;5.616;2022-11-15T00:08:42;100656.44;;;5.37;97.63
71805;BME280;59654;52.216;5.616;2022-11-15T00:09:31;100658.28;;;5.32;98.11
71805;BME280;59654;52.216;5.616;2022-11-15T00:10:20;100665.31;;;5.33;98.61
71805;BME280;59654;52.216;5.616;2022-11-15T00:11:12;100663.56;;;5.32;98.40
71805;BME280;59654;52.216;5.616;2022-11-15T00:12:01;100653.84;;;5.31;98.81
71805;BME280;59654;52.216;5.616;2022-11-15T00:12:51;100653.00;;;5.29;98.83
71805;BME280;59654;52.216;5.616;2022-11-15T00:13:40;100654.75;;;5.32;98.89
71805;BME280;59654;52.216;5.616;2022-11-15T00:14:30;100652.97;;;5.34;98.97
71805;BME280;59654;52.216;5.616;2022-11-15T00:15:20;100667.00;;;5.37;98.88
71805;BME280;59654;52.216;5.616;2022-11-15T00:16:09;100670.44;;;5.43;99.14
71805;BME280;59654;52.216;5.616;2022-11-15T00:16:59;100681.88;;;5.43;98.27
71805;BME280;59654;52.216;5.616;2022-11-15T00:17:49;100666.91;;;5.42;99.09
71805;BME280;59654;52.216;5.616;2022-11-15T00:18:38;100665.97;;;5.45;98.78
71805;BME280;59654;52.216;5.616;2022-11-15T00:19:28;100668.66;;;5.43;98.88
71805;BME280;59654;52.216;5.616;2022-11-15T00:20:17;100671.22;;;5.46;98.59
71805;BME280;59654;52.216;5.616;2022-11-15T00:21:10;100669.41;;;5.48;98.71
71805;BME280;59654;52.216;5.616;2022-11-15T00:22:01;100663.47;;;5.38;99.15
71805;BME280;59654;52.216;5.616;2022-11-15T00:22:50;100661.69;;;5.39;99.21
71805;BME280;59654;52.216;5.616;2022-11-15T00:23:40;100662.63;;;5.36;99.32
71805;BME280;59654;52.216;5.616;2022-11-15T00:24:30;100668.84;;;5.32;99.48
71805;BME280;59654;52.216;5.616;2022-11-15T00:25:19;100663.72;;;5.23;99.89
71805;BME280;59654;52.216;5.616;2022-11-15T00:26:13;100665.50;;;5.23;100.00
71805;BME280;59654;52.216;5.616;2022-11-15T00:27:04;100665.41;;;5.27;100.00
71805;BME280;59654;52.216;5.616;2022-11-15T00:27:57;100662.66;;;5.33;100.00
71805;BME280;59654;52.216;5.616;2022-11-15T00:28:47;100659.25;;;5.27;100.00
71805;BME280;59654;52.216;5.616;2022-11-15T00:29:36;100660.03;;;5.30;100.00
71805;BME280;59654;52.216;5.616;2022-11-15T00:30:27;100655.59;;;5.34;100.00
71805;BME280;59654;52.216;5.616;2022-11-15T00:31:17;100657.31;;;5.36;100.00
71805;BME280;59654;52.216;5.616;2022-11-15T00:32:06;100655.56;;;5.37;100.00
71805;BME280;59654;52.216;5.616;2022-11-15T00:32:55;100658.16;;;5.38;100.00
71805;BME280;59654;52.216;5.616;2022-11-15T00:33:45;100658.13;;;5.41;100.00
71805;BME280;59654;52.216;5.616;2022-11-15T00:34:34;100654.47;;;5.46;100.00
71805;BME280;59654;52.216;5.616;2022-11-15T00:35:24;100655.38;;;5.45;100.00
71805;BME280;59654;52.216;5.616;2022-11-15T00:36:13;100650.00;;;5.49;100.00
71805;BME280;59654;52.216;5.616;2022-11-15T00:37:02;100648.22;;;5.51;100.00
71805;BME280;59654;52.216;5.616;2022-11-15T00:37:52;100653.59;;;5.47;100.00
71805;BME280;59654;52.216;5.616;2022-11-15T00:38:42;100656.16;;;5.50;100.00
71805;BME280;59654;52.216;5.616;2022-11-15T00:39:31;100650.00;;;5.49;100.00
71805;BME280;59654;52.216;5.616;2022-11-15T00:40:20;100649.91;;;5.55;99.93
71805;BME280;59654;52.216;5.616;2022-11-15T00:41:10;100656.13;;;5.53;100.00
71805;BME280;59654;52.216;5.616;2022-11-15T00:41:59;100644.59;;;5.55;100.00
71805;BME280;59654;52.216;5.616;2022-11-15T00:42:49;100639.22;;;5.60;100.00
71805;BME280;59654;52.216;5.616;2022-11-15T00:43:38;100644.44;;;5.63;99.51
71805;BME280;59654;52.216;5.616;2022-11-15T00:44:28;100639.97;;;5.65;99.64
71805;BME280;59654;52.216;5.616;2022-11-15T00:45:18;100638.25;;;5.64;99.85
71805;BME280;59654;52.216;5.616;2022-11-15T00:46:07;100643.59;;;5.61;99.94
71805;BME280;59654;52.216;5.616;2022-11-15T00:46:58;100647.03;;;5.64;99.91
71805;BME280;59654;52.216;5.616;2022-11-15T00:47:47;100648.97;;;5.58;100.00
71805;BME280;59654;52.216;5.616;2022-11-15T00:48:36;100647.19;;;5.58;100.00
71805;BME280;59654;52.216;5.616;2022-11-15T00:49:26;100645.31;;;5.62;100.00
71805;BME280;59654;52.216;5.616;2022-11-15T00:50:15;100647.16;;;5.60;100.00
71805;BME280;59654;52.216;5.616;2022-11-15T00:51:05;100656.00;;;5.59;100.00
71805;BME280;59654;52.216;5.616;2022-11-15T00:51:54;100646.19;;;5.62;100.00
71805;BME280;59654;52.216;5.616;2022-11-15T00:52:44;100651.50;;;5.62;100.00
71805;BME280;59654;52.216;5.616;2022-11-15T00:53:33;100638.38;;;5.58;100.00
71805;BME280;59654;52.216;5.616;2022-11-15T00:54:23;100646.31;;;5.58;100.00
71805;BME280;59654;52.216;5.616;2022-11-15T00:55:17;100646.16;;;5.64;100.00
71805;BME280;59654;52.216;5.616;2022-11-15T00:56:07;100647.97;;;5.62;100.00
71805;BME280;59654;52.216;5.616;2022-11-15T00:56:56;100651.44;;;5.65;100.00
71805;BME280;59654;52.216;5.616;2022-11-15T00:57:46;100648.72;;;5.68;100.00
71805;BME280;59654;52.216;5.616;2022-11-15T00:58:35;100645.25;;;5.66;100.00
71805;BME280;59654;52.216;5.616;2022-11-15T00:59:24;100646.22;;;5.61;100.00
71805;BME280;59654;52.216;5.616;2022-11-15T01:00:14;100643.56;;;5.62;100.00
71805;BME280;59654;52.216;5.616;2022-11-15T01:01:12;100646.38;;;5.55;100.00
71805;BME280;59654;52.216;5.616;2022-11-15T01:02:03;100642.03;;;5.52;100.00
71805;BME280;59654;52.216;5.616;2022-11-15T01:02:52;100645.59;;;5.50;100.00
71805;BME280;59654;52.216;5.616;2022-11-15T01:03:42;100644.75;;;5.48;100.00
71805;BME280;59654;52.216;5.616;2022-11-15T01:04:31;100642.97;;;5.48;100.00
71805;BME280;59654;52.216;5.616;2022-11-15T01:05:21;100642.97;;;5.48;100.00
71805;BME280;59654;52.216;5.616;2022-11-15T01:06:11;100629.72;;;5.50;100.00
71805;BME280;59654;52.216;5.616;2022-11-15T01:07:00;100634.94;;;5.54;100.00
71805;BME280;59654;52.216;5.616;2022-11-15T01:07:54;100635.66;;;5.61;100.00
71805;BME280;59654;52.216;5.616;2022-11-15T01:08:44;100635.63;;;5.62;100.00
71805;BME280;59654;52.216;5.616;2022-11-15T01:09:33;100635.63;;;5.62;100.00
71805;BME280;59654;52.216;5.616;2022-11-15T01:10:23;100639.16;;;5.61;100.00
71805;BME280;59654;52.216;5.616;2022-11-15T01:11:12;100636.53;;;5.61;100.00
71805;BME280;59654;52.216;5.616;2022-11-15T01:12:02;100634.00;;;5.57;100.00
71805;BME280;59654;52.216;5.616;2022-11-15T01:12:52;100627.81;;;5.58;100.00
71805;BME280;59654;52.216;5.616;2022-11-15T01:13:41;100635.75;;;5.58;100.00
71805;BME280;59654;52.216;5.616;2022-11-15T01:14:30;100634.84;;;5.59;100.00
71805;BME280;59654;52.216;5.616;2022-11-15T01:15:19;100634.75;;;5.62;100.00
71805;BME280;59654;52.216;5.616;2022-11-15T01:16:13;100625.91;;;5.63;100.00
71805;BME280;59654;52.216;5.616;2022-11-15T01:17:04;100632.94;;;5.64;100.00
71805;BME280;59654;52.216;5.616;2022-11-15T01:17:53;100637.38;;;5.63;100.00
71805;BME280;59654;52.216;5.616;2022-11-15T01:18:44;100638.13;;;5.70;100.00
71805;BME280;59654;52.216;5.616;2022-11-15T01:19:34;100624.91;;;5.68;100.00
71805;BME280;59654;52.216;5.616;2022-11-15T01:20:24;100626.59;;;5.72;100.00
71805;BME280;59654;52.216;5.616;2022-11-15T01:21:17;100627.31;;;5.79;100.00
71805;BME280;59654;52.216;5.616;2022-11-15T01:22:07;100623.78;;;5.80;100.00
71805;BME280;59654;52.216;5.616;2022-11-15T01:22:56;100623.75;;;5.82;100.00
71805;BME280;59654;52.216;5.616;2022-11-15T01:23:46;100621.19;;;5.77;100.00
71805;BME280;59654;52.216;5.616;2022-11-15T01:24:35;100624.56;;;5.85;100.00
71805;BME280;59654;52.216;5.616;2022-11-15T01:25:25;100617.53;;;5.84;100.00
71805;BME280;59654;52.216;5.616;2022-11-15T01:26:15;100620.97;;;5.88;100.00
71805;BME280;59654;52.216;5.616;2022-11-15T01:27:06;100618.28;;;5.89;100.00
71805;BME280;59654;52.216;5.616;2022-11-15T01:27:55;100617.34;;;5.92;100.00
71805;BME280;59654;52.216;5.616;2022-11-15T01:28:44;100622.56;;;5.95;100.00
71805;BME280;59654;52.216;5.616;2022-11-15T01:29:34;100611.88;;;5.99;100.00
71805;BME280;59654;52.216;5.616;2022-11-15T01:30:23;100611.91;;;5.98;100.00
71805;BME280;59654;52.216;5.616;2022-11-15T01:31:16;100610.97;;;6.00;100.00
71805;BME280;59654;52.216;5.616;2022-11-15T01:32:07;100609.25;;;5.98;100.00
71805;BME280;59654;52.216;5.616;2022-11-15T01:32:56;100612.75;;;6.00;100.00
71805;BME280;59654;52.216;5.616;2022-11-15T01:33:47;100617.13;;;6.01;100.00
71805;BME280;59654;52.216;5.616;2022-11-15T01:34:36;100607.44;;;6.00;100.00
71805;BME280;59654;52.216;5.616;2022-11-15T01:35:26;100603.97;;;5.98;100.00
71805;BME280;59654;52.216;5.616;2022-11-15T01:36:18;100609.16;;;6.02;100.00
71805;BME280;59654;52.216;5.616;2022-11-15T01:37:10;100606.44;;;6.05;100.00
71805;BME280;59654;52.216;5.616;2022-11-15T01:38:00;100597.47;;;6.11;100.00
71805;BME280;59654;52.216;5.616;2022-11-15T01:38:57;100604.69;;;6.06;100.00
71805;BME280;59654;52.216;5.616;2022-11-15T01:39:47;100609.13;;;6.04;100.00
71805;BME280;59654;52.216;5.616;2022-11-15T01:40:37;100602.81;;;6.09;100.00
71805;BME280;59654;52.216;5.616;2022-11-15T01:41:29;100601.22;;;6.02;100.00
71805;BME280;59654;52.216;5.616;2022-11-15T01:42:20;100604.75;;;6.03;100.00
71805;BME280;59654;52.216;5.616;2022-11-15T01:43:39;100600.13;;;6.11;100.00
71805;BME280;59654;52.216;5.616;2022-11-15T01:44:37;100611.59;;;6.10;100.00
71805;BME280;59654;52.216;5.616;2022-11-15T01:45:37;100598.47;;;6.07;100.00
71805;BME280;59654;52.216;5.616;2022-11-15T01:46:30;100609.09;;;6.05;100.00
71805;BME280;59654;52.216;5.616;2022-11-15T01:47:31;100606.38;;;6.08;100.00
71805;BME280;59654;52.216;5.616;2022-11-15T01:48:30;100600.16;;;6.09;100.00
71805;BME280;59654;52.216;5.616;2022-11-15T01:49:23;100601.69;;;6.20;100.00
71805;BME280;59654;52.216;5.616;2022-11-15T01:50:18;100600.84;;;6.18;100.00
71805;BME280;59654;52.216;5.616;2022-11-15T01:51:14;100599.91;;;6.20;100.00
71805;BME280;59654;52.216;5.616;2022-11-15T01:52:09;100604.34;;;6.20;100.00
71805;BME280;59654;52.216;5.616;2022-11-15T01:53:03;100608.53;;;6.28;100.00
71805;BME280;59654;52.216;5.616;2022-11-15T01:53:58;100605.09;;;6.25;100.00
71805;BME280;59654;52.216;5.616;2022-11-15T01:55:09;100598.84;;;6.27;100.00
71805;BME280;59654;52.216;5.616;2022-11-15T01:56:05;100605.97;;;6.25;100.00
71805;BME280;59654;52.216;5.616;2022-11-15T01:57:07;100612.91;;;6.29;100.00
71805;BME280;59654;52.216;5.616;2022-11-15T01:58:02;100598.78;;;6.30;100.00
71805;BME280;59654;52.216;5.616;2022-11-15T01:58:56;100601.53;;;6.26;100.00
71805;BME280;59654;52.216;5.616;2022-11-15T01:59:46;100600.59;;;6.28;100.00
71805;BME280;59654;52.216;5.616;2022-11-15T02:00:36;100604.97;;;6.29;100.00
71805;BME280;59654;52.216;5.616;2022-11-15T02:01:30;100597.00;;;6.31;100.00
71805;BME280;59654;52.216;5.616;2022-11-15T02:02:21;100593.38;;;6.35;100.00
71805;BME280;59654;52.216;5.616;2022-11-15T02:03:11;100597.75;;;6.36;100.00
71805;BME280;59654;52.216;5.616;2022-11-15T02:04:30;100591.50;;;6.40;100.00
71805;BME280;59654;52.216;5.616;2022-11-15T02:05:21;100598.66;;;6.35;100.00
71805;BME280;59654;52.216;5.616;2022-11-15T02:06:11;100597.75;;;6.36;100.00
71805;BME280;59654;52.216;5.616;2022-11-15T02:07:04;100593.31;;;6.38;100.00
71805;BME280;59654;52.216;5.616;2022-11-15T02:07:55;100594.28;;;6.34;100.00
71805;BME280;59654;52.216;5.616;2022-11-15T02:08:44;100595.13;;;6.36;100.00
71805;BME280;59654;52.216;5.616;2022-11-15T02:09:36;100589.72;;;6.40;100.00
71805;BME280;59654;52.216;5.616;2022-11-15T02:10:27;100593.97;;;6.46;100.00
71805;BME280;59654;52.216;5.616;2022-11-15T02:11:16;100587.78;;;6.45;100.00
71805;BME280;59654;52.216;5.616;2022-11-15T02:12:09;100584.13;;;6.51;100.00
71805;BME280;59654;52.216;5.616;2022-11-15T02:13:02;100589.31;;;6.56;100.00
71805;BME280;59654;52.216;5.616;2022-11-15T02:13:52;100583.97;;;6.57;100.00
71805;BME280;59654;52.216;5.616;2022-11-15T02:14:48;100583.19;;;6.54;100.00
71805;BME280;59654;52.216;5.616;2022-11-15T02:16:03;100584.88;;;6.56;100.00
71805;BME280;59654;52.216;5.616;2022-11-15T02:17:23;100580.50;;;6.55;100.00
71805;BME280;59654;52.216;5.616;2022-11-15T02:18:27;100577.09;;;6.50;100.00
71805;BME280;59654;52.216;5.616;2022-11-15T02:20:58;100580.47;;;6.57;100.00
71805;BME280;59654;52.216;5.616;2022-11-15T02:25:25;100566.25;;;6.59;100.00
71805;BME280;59654;52.216;5.616;2022-11-15T02:35:32;100558.00;;;6.71;100.00
71805;BME280;59654;52.216;5.616;2022-11-15T02:37:11;100553.41;;;6.76;100.00
71805;BME280;59654;52.216;5.616;2022-11-15T02:38:40;100559.63;;;6.75;100.00
71805;BME280;59654;52.216;5.616;2022-11-15T02:42:49;100554.91;;;6.87;100.00
71805;BME280;59654;52.216;5.616;2022-11-15T02:44:08;100549.44;;;6.93;100.00
71805;BME280;59654;52.216;5.616;2022-11-15T02:45:17;100550.44;;;6.89;100.00
71805;BME280;59654;52.216;5.616;2022-11-15T02:47:54;100547.53;;;6.98;100.00
71805;BME280;59654;52.216;5.616;2022-11-15T02:48:48;100538.72;;;6.97;100.00
71805;BME280;59654;52.216;5.616;2022-11-15T02:49:47;100536.97;;;6.96;100.00
71805;BME280;59654;52.216;5.616;2022-11-15T02:50:38;100535.19;;;6.97;100.00
71805;BME280;59654;52.216;5.616;2022-11-15T02:51:28;100529.94;;;6.95;100.00
71805;BME280;59654;52.216;5.616;2022-11-15T02:52:20;100530.75;;;6.97;100.00
71805;BME280;59654;52.216;5.616;2022-11-15T02:53:10;100532.53;;;6.97;100.00
71805;BME280;59654;52.216;5.616;2022-11-15T02:54:01;100528.94;;;6.99;100.00
71805;BME280;59654;52.216;5.616;2022-11-15T02:54:57;100531.63;;;6.98;100.00
71805;BME280;59654;52.216;5.616;2022-11-15T02:55:51;100530.56;;;7.05;100.00
71805;BME280;59654;52.216;5.616;2022-11-15T02:56:43;100534.25;;;6.99;100.00
71805;BME280;59654;52.216;5.616;2022-11-15T02:57:52;100533.97;;;7.08;100.00
71805;BME280;59654;52.216;5.616;2022-11-15T02:59:50;100528.53;;;7.13;100.00
71805;BME280;59654;52.216;5.616;2022-11-15T03:00:58;100533.78;;;7.14;100.00
71805;BME280;59654;52.216;5.616;2022-11-15T03:03:48;100514.06;;;7.25;100.00
71805;BME280;59654;52.216;5.616;2022-11-15T03:04:57;100519.28;;;7.28;100.00
71805;BME280;59654;52.216;5.616;2022-11-15T03:06:26;100526.28;;;7.30;100.00
71805;BME280;59654;52.216;5.616;2022-11-15T03:07:45;100520.97;;;7.30;100.00
71805;BME280;59654;52.216;5.616;2022-11-15T03:08:56;100514.81;;;7.30;100.00
71805;BME280;59654;52.216;5.616;2022-11-15T03:11:14;100498.63;;;7.39;100.00
71805;BME280;59654;52.216;5.616;2022-11-15T03:14:10;100495.78;;;7.45;100.00
71805;BME280;59654;52.216;5.616;2022-11-15T03:14:52;100498.34;;;7.48;100.00
71805;BME280;59654;52.216;5.616;2022-11-15T03:16:00;100496.56;;;7.48;100.00
71805;BME280;59654;52.216;5.616;2022-11-15T03:18:27;100496.50;;;7.50;100.00
71805;BME280;59654;52.216;5.616;2022-11-15T03:19:44;100491.13;;;7.53;100.00
71805;BME280;59654;52.216;5.616;2022-11-15T03:20:36;100496.38;;;7.55;100.00
71805;BME280;59654;52.216;5.616;2022-11-15T03:21:29;100499.03;;;7.55;100.00
71805;BME280;59654;52.216;5.616;2022-11-15T03:22:23;100495.50;;;7.54;100.00
71805;BME280;59654;52.216;5.616;2022-11-15T03:23:14;100504.34;;;7.55;100.00
71805;BME280;59654;52.216;5.616;2022-11-15T03:24:07;100497.34;;;7.52;100.00
71805;BME280;59654;52.216;5.616;2022-11-15T03:25:02;100497.25;;;7.55;100.00
71805;BME280;59654;52.216;5.616;2022-11-15T03:25:56;100503.47;;;7.54;100.00
71805;BME280;59654;52.216;5.616;2022-11-15T03:26:48;100500.00;;;7.52;100.00
71805;BME280;59654;52.216;5.616;2022-11-15T03:27:43;100498.25;;;7.51;100.00
71805;BME280;59654;52.216;5.616;2022-11-15T03:28:47;100508.78;;;7.54;100.00
71805;BME280;59654;52.216;5.616;2022-11-15T03:29:46;100514.00;;;7.56;100.00
71805;BME280;59654;52.216;5.616;2022-11-15T03:30:39;100524.63;;;7.56;100.00
71805;BME280;59654;52.216;5.616;2022-11-15T03:31:38;100515.75;;;7.57;100.00
71805;BME280;59654;52.216;5.616;2022-11-15T03:32:50;100513.03;;;7.58;100.00
71805;BME280;59654;52.216;5.616;2022-11-15T03:33:43;100512.91;;;7.63;100.00
71805;BME280;59654;52.216;5.616;2022-11-15T03:35:07;100509.44;;;7.61;100.00
71805;BME280;59654;52.216;5.616;2022-11-15T03:36:02;100513.78;;;7.63;100.00
71805;BME280;59654;52.216;5.616;2022-11-15T03:36:52;100510.25;;;7.63;100.00
71805;BME280;59654;52.216;5.616;2022-11-15T03:37:46;100514.78;;;7.59;100.00
71805;BME280;59654;52.216;5.616;2022-11-15T03:39:02;100513.00;;;7.60;100.00
71805;BME280;59654;52.216;5.616;2022-11-15T03:39:55;100519.22;;;7.59;100.00
71805;BME280;59654;52.216;5.616;2022-11-15T03:40:57;100514.72;;;7.61;100.00
71805;BME280;59654;52.216;5.616;2022-11-15T03:42:01;100514.66;;;7.64;100.00
71805;BME280;59654;52.216;5.616;2022-11-15T03:46:15;100517.81;;;7.75;100.00
71805;BME280;59654;52.216;5.616;2022-11-15T03:47:21;100514.47;;;7.70;100.00
71805;BME280;59654;52.216;5.616;2022-11-15T03:48:22;100520.56;;;7.72;100.00
71805;BME280;59654;52.216;5.616;2022-11-15T03:49:22;100515.13;;;7.76;100.00
71805;BME280;59654;52.216;5.616;2022-11-15T03:50:20;100519.41;;;7.80;100.00
71805;BME280;59654;52.216;5.616;2022-11-15T03:51:12;100522.84;;;7.84;100.00
71805;BME280;59654;52.216;5.616;2022-11-15T03:52:04;100525.50;;;7.84;100.00
71805;BME280;59654;52.216;5.616;2022-11-15T03:52:54;100523.63;;;7.88;100.00
71805;BME280;59654;52.216;5.616;2022-11-15T03:53:45;100520.03;;;7.88;100.00
71805;BME280;59654;52.216;5.616;2022-11-15T03:54:35;100517.28;;;7.92;100.00
71805;BME280;59654;52.216;5.616;2022-11-15T03:55:25;100519.84;;;7.95;100.00
71805;BME280;59654;52.216;5.616;2022-11-15T03:56:15;100518.06;;;7.95;100.00
71805;BME280;59654;52.216;5.616;2022-11-15T03:57:04;100511.91;;;7.93;100.00
71805;BME280;59654;52.216;5.616;2022-11-15T03:57:57;100512.00;;;7.90;100.00
71805;BME280;59654;52.216;5.616;2022-11-15T03:58:48;100512.22;;;7.84;100.00
71805;BME280;59654;52.216;5.616;2022-11-15T03:59:37;100517.38;;;7.88;100.00
71805;BME280;59654;52.216;5.616;2022-11-15T04:00:28;100521.03;;;7.86;100.00
71805;BME280;59654;52.216;5.616;2022-11-15T04:01:17;100513.75;;;7.91;100.00
71805;BME280;59654;52.216;5.616;2022-11-15T04:02:07;100513.69;;;7.93;100.00
71805;BME280;59654;52.216;5.616;2022-11-15T04:02:56;100521.56;;;7.96;100.00
71805;BME280;59654;52.216;5.616;2022-11-15T04:03:46;100515.31;;;7.98;100.00
71805;BME280;59654;52.216;5.616;2022-11-15T04:04:35;100516.13;;;8.00;100.00
71805;BME280;59654;52.216;5.616;2022-11-15T04:05:24;100525.06;;;7.98;100.00
71805;BME280;59654;52.216;5.616;2022-11-15T04:06:13;100521.53;;;7.97;100.00
71805;BME280;59654;52.216;5.616;2022-11-15T04:07:03;100523.16;;;8.01;100.00
71805;BME280;59654;52.216;5.616;2022-11-15T04:07:53;100521.34;;;8.03;100.00
71805;BME280;59654;52.216;5.616;2022-11-15T04:08:42;100514.25;;;8.04;100.00
71805;BME280;59654;52.216;5.616;2022-11-15T04:09:31;100509.84;;;8.03;100.00
71805;BME280;59654;52.216;5.616;2022-11-15T04:10:21;100518.78;;;8.00;100.00
71805;BME280;59654;52.216;5.616;2022-11-15T04:11:10;100522.13;;;8.05;100.00
71805;BME280;59654;52.216;5.616;2022-11-15T04:11:59;100517.63;;;8.07;100.00
71805;BME280;59654;52.216;5.616;2022-11-15T04:12:49;100514.00;;;8.10;100.00
71805;BME280;59654;52.216;5.616;2022-11-15T04:13:38;100506.97;;;8.09;100.00
71805;BME280;59654;52.216;5.616;2022-11-15T04:14:27;100517.41;;;8.15;100.00
71805;BME280;59654;52.216;5.616;2022-11-15T04:15:19;100505.81;;;8.17;100.00
71805;BME280;59654;52.216;5.616;2022-11-15T04:16:09;100503.97;;;8.19;100.00
71805;BME280;59654;52.216;5.616;2022-11-15T04:16:59;100505.81;;;8.17;100.00
71805;BME280;59654;52.216;5.616;2022-11-15T04:17:57;100504.06;;;8.16;100.00
71805;BME280;59654;52.216;5.616;2022-11-15T04:18:47;100498.66;;;8.19;100.00
71805;BME280;59654;52.216;5.616;2022-11-15T04:19:59;100497.88;;;8.16;100.00
71805;BME280;59654;52.216;5.616;2022-11-15T04:21:08;100494.38;;;8.15;100.00
71805;BME280;59654;52.216;5.616;2022-11-15T04:22:16;100497.84;;;8.17;100.00
71805;BME280;59654;52.216;5.616;2022-11-15T04:23:24;100500.59;;;8.14;100.00
71805;BME280;59654;52.216;5.616;2022-11-15T04:24:32;100507.59;;;8.17;100.00
71805;BME280;59654;52.216;5.616;2022-11-15T04:25:22;100501.41;;;8.16;100.00
71805;BME280;59654;52.216;5.616;2022-11-15T04:26:14;100498.66;;;8.19;100.00
71805;BME280;59654;52.216;5.616;2022-11-15T04:27:05;100498.59;;;8.21;100.00
71805;BME280;59654;52.216;5.616;2022-11-15T04:27:55;100502.88;;;8.25;100.00
71805;BME280;59654;52.216;5.616;2022-11-15T04:28:44;100500.22;;;8.25;100.00
71805;BME280;59654;52.216;5.616;2022-11-15T04:29:53;100500.94;;;8.30;100.00
71805;BME280;59654;52.216;5.616;2022-11-15T04:30:42;100501.72;;;8.34;100.00
71805;BME280;59654;52.216;5.616;2022-11-15T04:31:32;100500.66;;;8.38;100.00
71805;BME280;59654;52.216;5.616;2022-11-15T04:32:21;100503.22;;;8.41;100.00
71805;BME280;59654;52.216;5.616;2022-11-15T04:33:11;100509.28;;;8.44;100.00
71805;BME280;59654;52.216;5.616;2022-11-15T04:34:00;100503.94;;;8.46;100.00
71805;BME280;59654;52.216;5.616;2022-11-15T04:34:50;100504.75;;;8.48;100.00
71805;BME280;59654;52.216;5.616;2022-11-15T04:35:39;100506.53;;;8.47;100.00
71805;BME280;59654;52.216;5.616;2022-11-15T04:36:29;100499.44;;;8.48;100.00
71805;BME280;59654;52.216;5.616;2022-11-15T04:37:37;100499.50;;;8.46;100.00
71805;BME280;59654;52.216;5.616;2022-11-15T04:38:27;100502.25;;;8.43;100.00
71805;BME280;59654;52.216;5.616;2022-11-15T04:39:16;100495.13;;;8.44;100.00
71805;BME280;59654;52.216;5.616;2022-11-15T04:40:06;100497.75;;;8.45;100.00
71805;BME280;59654;52.216;5.616;2022-11-15T04:40:58;100497.78;;;8.44;100.00
71805;BME280;59654;52.216;5.616;2022-11-15T04:41:48;100506.50;;;8.49;100.00
71805;BME280;59654;52.216;5.616;2022-11-15T04:42:37;100501.28;;;8.46;100.00
71805;BME280;59654;52.216;5.616;2022-11-15T04:43:27;100500.47;;;8.44;100.00
71805;BME280;59654;52.216;5.616;2022-11-15T04:44:16;100496.78;;;8.48;100.00
71805;BME280;59654;52.216;5.616;2022-11-15T04:45:06;100498.50;;;8.49;100.00
71805;BME280;59654;52.216;5.616;2022-11-15T04:45:56;100487.84;;;8.50;100.00
71805;BME280;59654;52.216;5.616;2022-11-15T04:46:45;100495.63;;;8.55;100.00
71805;BME280;59654;52.216;5.616;2022-11-15T04:47:34;100493.88;;;8.54;100.00
71805;BME280;59654;52.216;5.616;2022-11-15T04:48:24;100492.03;;;8.56;100.00
71805;BME280;59654;52.216;5.616;2022-11-15T04:49:13;100491.13;;;8.57;100.00
71805;BME280;59654;52.216;5.616;2022-11-15T04:50:04;100499.91;;;8.59;100.00
71805;BME280;59654;52.216;5.616;2022-11-15T04:50:54;100498.88;;;8.63;100.00
71805;BME280;59654;52.216;5.616;2022-11-15T04:51:44;100504.19;;;8.63;100.00
71805;BME280;59654;52.216;5.616;2022-11-15T04:52:34;100489.06;;;8.65;100.00
71805;BME280;59654;52.216;5.616;2022-11-15T04:53:23;100498.72;;;8.68;100.00
71805;BME280;59654;52.216;5.616;2022-11-15T04:54:12;100495.16;;;8.69;100.00
71805;BME280;59654;52.216;5.616;2022-11-15T04:55:02;100495.84;;;8.74;100.00
71805;BME280;59654;52.216;5.616;2022-11-15T04:55:53;100498.44;;;8.75;100.00
71805;BME280;59654;52.216;5.616;2022-11-15T04:56:42;100494.03;;;8.74;100.00
71805;BME280;59654;52.216;5.616;2022-11-15T04:57:31;100488.72;;;8.74;100.00
71805;BME280;59654;52.216;5.616;2022-11-15T04:58:20;100495.84;;;8.74;100.00
71805;BME280;59654;52.216;5.616;2022-11-15T04:59:10;100486.19;;;8.71;100.00
71805;BME280;59654;52.216;5.616;2022-11-15T04:59:59;100485.25;;;8.72;100.00
71805;BME280;59654;52.216;5.616;2022-11-15T05:00:49;100482.69;;;8.69;100.00
71805;BME280;59654;52.216;5.616;2022-11-15T05:01:38;100478.25;;;8.70;100.00
71805;BME280;59654;52.216;5.616;2022-11-15T05:02:27;100481.69;;;8.73;100.00
71805;BME280;59654;52.216;5.616;2022-11-15T05:03:37;100476.28;;;8.76;100.00
71805;BME280;59654;52.216;5.616;2022-11-15T05:04:45;100478.84;;;8.79;100.00
71805;BME280;59654;52.216;5.616;2022-11-15T05:05:34;100481.34;;;8.84;100.00
71805;BME280;59654;52.216;5.616;2022-11-15T05:06:23;100483.13;;;8.83;100.00
71805;BME280;59654;52.216;5.616;2022-11-15T05:07:13;100489.31;;;8.84;100.00
71805;BME280;59654;52.216;5.616;2022-11-15T05:08:03;100484.91;;;8.83;100.00
71805;BME280;59654;52.216;5.616;2022-11-15T05:08:53;100490.22;;;8.83;100.00
71805;BME280;59654;52.216;5.616;2022-11-15T05:09:43;100490.28;;;8.81;100.00